createdAt,value
2023-03-06T00:01:01.238Z,14.25
2023-03-06T00:03:29.797Z,14.50
2023-03-06T00:05:59.732Z,15.00
2023-03-06T00:08:30.608Z,17.50
2023-03-06T00:10:59.745Z,18.00
2023-03-06T00:13:30.917Z,17.00
2023-03-06T00:16:01.924Z,19.00
2023-03-06T00:18:30.430Z,19.75
2023-03-06T00:20:58.802Z,21.00
2023-03-06T00:23:28.561Z,20.75
2023-03-06T00:25:56.841Z,20.50
2023-03-06T00:28:25.211Z,22.25
2023-03-06T00:30:53.547Z,22.00
2023-03-06T00:33:21.845Z,22.75
2023-03-06T00:35:50.328Z,21.25
2023-03-06T00:38:18.706Z,20.75
2023-03-06T00:40:47.089Z,22.00
2023-03-06T00:43:15.678Z,21.25
2023-03-06T00:45:44.054Z,21.00
2023-03-06T00:48:12.439Z,21.00
2023-03-06T00:50:40.751Z,20.00
2023-03-06T00:53:09.186Z,19.75
2023-03-06T00:55:37.520Z,19.00
2023-03-06T00:58:06.042Z,19.00
2023-03-06T01:00:34.559Z,19.00
2023-03-06T01:03:02.870Z,14.75
2023-03-06T01:05:34.252Z,17.50
2023-03-06T01:08:02.996Z,16.50
2023-03-06T01:10:31.522Z,18.75
2023-03-06T01:13:00.220Z,19.25
2023-03-06T01:15:28.548Z,27.00
2023-03-06T01:17:56.928Z,26.75
2023-03-06T01:20:25.396Z,20.00
2023-03-06T01:22:55.500Z,18.50
2023-03-06T01:25:26.237Z,19.00
2023-03-06T01:27:54.584Z,17.50
2023-03-06T01:30:22.963Z,19.00
2023-03-06T01:32:51.316Z,15.00
2023-03-06T01:35:19.765Z,15.25
2023-03-06T01:37:48.151Z,15.75
2023-03-06T01:40:16.466Z,15.50
2023-03-06T01:42:46.413Z,16.75
2023-03-06T01:45:15.072Z,15.25
2023-03-06T01:47:43.388Z,14.50
2023-03-06T01:50:13.705Z,13.25
2023-03-06T01:53:02.112Z,15.50
2023-03-06T01:55:35.957Z,15.25
2023-03-06T01:58:16.496Z,15.00
2023-03-06T02:00:44.833Z,14.00
2023-03-06T02:03:20.900Z,15.50
2023-03-06T02:05:49.585Z,16.75
2023-03-06T02:08:20.631Z,14.25
2023-03-06T02:11:03.392Z,15.25
2023-03-06T02:13:32.707Z,15.00
2023-03-06T02:16:01.161Z,15.50
2023-03-06T02:18:30.661Z,15.75
2023-03-06T02:21:03.487Z,16.25
2023-03-06T02:23:50.355Z,14.50
2023-03-06T02:26:19.999Z,14.50
2023-03-06T02:28:50.405Z,17.00
2023-03-06T02:31:29.337Z,15.00
2023-03-06T02:37:09.852Z,14.75
2023-03-06T02:39:43.998Z,16.00
2023-03-06T02:42:18.586Z,17.50
2023-03-06T02:44:47.227Z,15.50
2023-03-06T02:47:15.612Z,18.50
2023-03-06T02:49:43.893Z,14.25
2023-03-06T02:52:12.638Z,18.00
2023-03-06T02:54:41.003Z,15.50
2023-03-06T02:57:09.679Z,16.25
2023-03-06T02:59:38.003Z,17.50
2023-03-06T03:02:06.509Z,16.25
2023-03-06T03:04:34.997Z,15.75
2023-03-06T03:07:03.527Z,13.25
2023-03-06T03:09:37.639Z,16.00
2023-03-06T03:12:08.492Z,18.50
2023-03-06T03:14:36.807Z,17.75
2023-03-06T03:17:05.212Z,15.00
2023-03-06T03:19:33.839Z,17.00
2023-03-06T03:22:02.280Z,15.75
2023-03-06T03:24:30.693Z,14.25
2023-03-06T03:26:59.207Z,14.00
2023-03-06T03:29:27.620Z,12.25
2023-03-06T03:31:55.897Z,15.25
2023-03-06T03:34:24.341Z,17.25
2023-03-06T03:36:52.646Z,14.25
2023-03-06T03:39:20.981Z,16.25
2023-03-06T03:41:49.305Z,15.50
2023-03-06T03:44:17.678Z,13.50
2023-03-06T03:46:46.074Z,16.00
2023-03-06T03:49:14.438Z,15.25
2023-03-06T03:51:42.766Z,13.00
2023-03-06T03:54:11.347Z,13.00
2023-03-06T03:56:41.617Z,15.25
2023-03-06T03:59:10.700Z,13.75
2023-03-06T04:01:39.805Z,13.00
2023-03-06T04:04:08.350Z,14.00
2023-03-06T04:06:36.665Z,12.75
2023-03-06T04:09:05.535Z,14.25
2023-03-06T04:11:33.878Z,13.50
2023-03-06T04:14:02.312Z,15.50
2023-03-06T04:16:30.675Z,14.25
2023-03-06T04:18:59.067Z,13.50
2023-03-06T04:21:27.469Z,13.50
2023-03-06T04:23:56.030Z,14.25
2023-03-06T04:26:24.341Z,13.50
2023-03-06T04:28:52.765Z,15.00
2023-03-06T04:31:21.114Z,15.75
2023-03-06T04:33:49.638Z,14.50
2023-03-06T04:36:30.113Z,13.50
2023-03-06T04:38:58.838Z,13.00
2023-03-06T04:41:27.303Z,14.75
2023-03-06T04:43:55.708Z,15.00
2023-03-06T04:46:24.059Z,14.00
2023-03-06T04:48:52.415Z,14.75
2023-03-06T04:51:20.770Z,13.50
2023-03-06T04:53:49.109Z,13.50
2023-03-06T04:56:17.458Z,14.25
2023-03-06T04:58:46.083Z,15.00
2023-03-06T05:01:14.598Z,13.00
2023-03-06T05:03:43.004Z,13.25
2023-03-06T05:06:11.384Z,13.75
2023-03-06T05:08:39.975Z,13.00
2023-03-06T05:11:08.390Z,15.50
2023-03-06T05:13:36.733Z,17.50
2023-03-06T05:16:06.949Z,15.25
2023-03-06T05:18:35.865Z,14.00
2023-03-06T05:21:05.847Z,13.25
2023-03-06T05:23:36.277Z,14.00
2023-03-06T05:26:09.363Z,16.75
2023-03-06T05:28:37.880Z,13.50
2023-03-06T05:31:07.191Z,13.50
2023-03-06T05:33:37.161Z,12.00
2023-03-06T05:36:05.848Z,15.75
2023-03-06T05:38:34.184Z,12.00
2023-03-06T05:41:02.482Z,13.50
2023-03-06T05:43:31.026Z,13.25
2023-03-06T05:46:07.694Z,14.25
2023-03-06T05:48:37.240Z,16.00
2023-03-06T05:51:06.450Z,14.00
2023-03-06T05:53:34.997Z,15.25
2023-03-06T05:56:06.940Z,14.25
2023-03-06T05:58:35.470Z,13.25
2023-03-06T06:01:17.497Z,13.75
2023-03-06T06:03:46.405Z,14.25
2023-03-06T06:06:16.396Z,12.75
2023-03-06T06:08:44.988Z,13.25
2023-03-06T06:11:14.954Z,15.50
2023-03-06T06:13:43.433Z,13.75
2023-03-06T06:16:13.840Z,15.25
2023-03-06T06:18:42.359Z,14.00
2023-03-06T06:21:12.901Z,11.75
2023-03-06T06:23:41.539Z,13.00
2023-03-06T06:26:11.066Z,13.50
2023-03-06T06:28:39.455Z,13.75
2023-03-06T06:31:14.467Z,12.50
2023-03-06T06:33:43.237Z,12.00
2023-03-06T06:36:21.778Z,12.00
2023-03-06T06:38:50.758Z,13.25
2023-03-06T06:41:42.329Z,13.75
2023-03-06T06:44:09.337Z,11.75
2023-03-06T06:49:26.918Z,13.50
2023-03-06T06:51:55.231Z,10.75
2023-03-06T06:54:23.659Z,11.25
2023-03-06T06:56:52.169Z,10.50
2023-03-06T06:59:20.875Z,11.25
2023-03-06T07:01:49.255Z,12.25
2023-03-06T07:04:18.971Z,13.00
2023-03-06T07:06:47.337Z,14.75
2023-03-06T07:09:16.099Z,13.25
2023-03-06T07:11:44.583Z,13.00
2023-03-06T07:14:12.866Z,13.00
2023-03-06T07:16:41.189Z,14.00
2023-03-06T07:19:09.563Z,10.75
2023-03-06T07:21:37.908Z,11.25
2023-03-06T07:24:06.443Z,13.00
2023-03-06T07:26:35.000Z,12.75
2023-03-06T07:29:04.965Z,13.00
2023-03-06T07:31:33.650Z,14.25
2023-03-06T07:34:04.498Z,14.25
2023-03-06T07:36:35.114Z,13.50
2023-03-06T07:39:03.443Z,15.25
2023-03-06T07:41:31.714Z,12.50
2023-03-06T07:44:00.116Z,13.25
2023-03-06T07:46:28.521Z,13.50
2023-03-06T07:48:57.083Z,14.75
2023-03-06T07:51:25.485Z,12.50
2023-03-06T07:53:53.845Z,12.75
2023-03-06T07:56:22.187Z,11.75
2023-03-06T07:58:50.530Z,11.75
2023-03-06T08:01:22.217Z,13.25
2023-03-06T08:03:51.290Z,13.25
2023-03-06T08:06:24.011Z,14.50
2023-03-06T08:08:53.754Z,15.00
2023-03-06T08:11:24.369Z,13.25
2023-03-06T08:13:53.840Z,11.75
2023-03-06T08:16:23.546Z,12.25
2023-03-06T08:18:52.466Z,13.75
2023-03-06T08:21:23.299Z,13.75
2023-03-06T08:23:52.538Z,12.25
2023-03-06T08:26:24.190Z,14.25
2023-03-06T08:28:54.744Z,13.25
2023-03-06T08:31:23.003Z,12.75
2023-03-06T08:33:51.619Z,15.00
2023-03-06T08:36:19.979Z,14.00
2023-03-06T08:38:48.366Z,11.75
2023-03-06T08:41:16.812Z,14.00
2023-03-06T08:43:45.216Z,17.00
2023-03-06T08:46:14.339Z,14.50
2023-03-06T08:48:43.103Z,15.25
2023-03-06T08:51:12.049Z,13.75
2023-03-06T08:53:43.501Z,13.75
2023-03-06T08:56:33.953Z,15.25
2023-03-06T08:59:04.787Z,13.75
2023-03-06T09:01:35.974Z,13.75
2023-03-06T09:04:07.648Z,12.00
2023-03-06T09:06:39.872Z,13.50
2023-03-06T09:09:09.632Z,16.25
2023-03-06T09:11:38.557Z,12.75
2023-03-06T09:14:07.259Z,13.25
2023-03-06T09:16:35.819Z,14.25
2023-03-06T09:19:04.287Z,12.75
2023-03-06T09:21:32.643Z,13.25
2023-03-06T09:24:01.164Z,15.00
2023-03-06T09:26:43.207Z,11.50
2023-03-06T09:29:13.802Z,14.50
2023-03-06T09:31:42.126Z,12.50
2023-03-06T09:34:10.429Z,14.25
2023-03-06T09:36:53.703Z,14.00
2023-03-06T09:39:25.046Z,12.50
2023-03-06T09:41:54.434Z,13.00
2023-03-06T09:44:27.084Z,15.50
2023-03-06T09:47:07.992Z,10.25
2023-03-06T09:49:48.165Z,11.25
2023-03-06T09:52:29.826Z,12.25
2023-03-06T09:55:12.830Z,13.00
2023-03-06T09:57:56.273Z,13.00
2023-03-06T10:00:35.354Z,13.25
2023-03-06T10:03:37.763Z,12.50
2023-03-06T10:06:34.581Z,15.00
2023-03-06T10:09:20.752Z,14.00
2023-03-06T10:11:57.065Z,15.50
2023-03-06T10:14:48.785Z,13.25
2023-03-06T10:17:20.627Z,13.25
2023-03-06T10:19:50.324Z,14.25
2023-03-06T10:22:28.381Z,13.25
2023-03-06T10:25:15.099Z,13.75
2023-03-06T10:28:04.699Z,14.00
2023-03-06T10:30:53.602Z,12.75
2023-03-06T10:33:45.216Z,14.50
2023-03-06T10:36:17.443Z,11.25
2023-03-06T10:38:49.392Z,13.50
2023-03-06T10:41:29.793Z,11.25
2023-03-06T10:44:01.142Z,13.75
2023-03-06T10:46:32.907Z,12.00
2023-03-06T10:49:27.148Z,12.25
2023-03-06T10:52:10.755Z,14.50
2023-03-06T10:54:42.521Z,11.75
2023-03-06T10:57:23.176Z,13.00
2023-03-06T10:59:54.548Z,13.25
2023-03-06T11:02:26.062Z,14.00
2023-03-06T11:04:56.052Z,12.25
2023-03-06T11:07:27.353Z,10.75
2023-03-06T11:09:59.611Z,12.50
2023-03-06T11:12:35.172Z,12.75
2023-03-06T11:15:23.285Z,13.00
2023-03-06T11:18:09.947Z,14.75
2023-03-06T11:20:54.249Z,12.25
2023-03-06T11:23:43.474Z,13.75
2023-03-06T11:26:17.512Z,13.75
2023-03-06T11:29:02.554Z,13.75
2023-03-06T11:31:36.234Z,12.25
2023-03-06T11:34:16.281Z,14.75
2023-03-06T11:37:36.773Z,14.75
2023-03-06T11:40:16.105Z,14.00
2023-03-06T11:42:54.135Z,13.25
2023-03-06T11:45:47.849Z,11.50
2023-03-06T11:48:16.396Z,14.25
2023-03-06T11:50:53.987Z,12.25
2023-03-06T11:53:34.484Z,15.25
2023-03-06T11:56:19.754Z,14.50
2023-03-06T11:58:59.889Z,14.00
2023-03-06T12:01:33.693Z,12.75
2023-03-06T12:04:09.451Z,14.00
2023-03-06T12:06:58.616Z,14.75
2023-03-06T12:09:26.945Z,15.25
2023-03-06T12:12:07.153Z,15.25
2023-03-06T12:15:12.651Z,15.75
2023-03-06T12:18:17.178Z,14.50
2023-03-06T12:21:06.542Z,16.75
2023-03-06T12:23:37.864Z,16.75
2023-03-06T12:26:40.890Z,17.25
2023-03-06T12:29:24.505Z,17.50
2023-03-06T12:31:52.837Z,15.25
2023-03-06T12:34:52.198Z,16.25
2023-03-06T12:37:30.306Z,15.50
2023-03-06T12:40:13.921Z,15.25
2023-03-06T12:42:52.883Z,14.75
2023-03-06T12:45:41.074Z,18.25
2023-03-06T12:48:27.334Z,15.25
2023-03-06T12:50:56.452Z,16.75
2023-03-06T12:53:40.414Z,17.75
2023-03-06T12:56:09.966Z,16.75
2023-03-06T12:58:51.552Z,17.75
2023-03-06T13:01:42.492Z,17.00
2023-03-06T13:04:25.723Z,18.00
2023-03-06T13:06:55.142Z,19.25
2023-03-06T13:09:38.344Z,17.50
2023-03-06T13:12:17.414Z,21.25
2023-03-06T13:14:54.225Z,18.50
2023-03-06T13:17:29.291Z,20.25
2023-03-06T13:20:15.740Z,19.50
2023-03-06T13:22:46.430Z,19.50
2023-03-06T13:25:20.862Z,20.00
2023-03-06T13:28:22.978Z,19.75
2023-03-06T13:30:52.987Z,18.75
2023-03-06T13:33:39.643Z,18.75
2023-03-06T13:36:30.564Z,18.00
2023-03-06T13:39:11.345Z,17.50
2023-03-06T13:41:44.304Z,18.50
2023-03-06T13:44:27.860Z,18.25
2023-03-06T13:47:02.671Z,18.25
2023-03-06T13:49:31.889Z,18.75
2023-03-06T13:52:20.360Z,17.00
2023-03-06T13:55:00.885Z,17.75
2023-03-06T13:57:46.351Z,16.25
2023-03-06T14:00:42.959Z,18.50
2023-03-06T14:03:38.232Z,19.50
2023-03-06T14:06:52.431Z,17.50
2023-03-06T14:09:29.249Z,18.00
2023-03-06T14:12:16.753Z,18.25
2023-03-06T14:14:52.035Z,18.25
2023-03-06T14:17:31.123Z,16.75
2023-03-06T14:20:15.077Z,18.00
2023-03-06T14:22:43.650Z,19.00
2023-03-06T14:25:29.556Z,18.75
2023-03-06T14:28:05.667Z,17.75
2023-03-06T14:30:51.216Z,17.75
2023-03-06T14:33:36.388Z,16.75
2023-03-06T14:36:09.022Z,18.25
2023-03-06T14:38:44.136Z,18.00
2023-03-06T14:41:14.051Z,20.75
2023-03-06T14:43:42.530Z,17.25
2023-03-06T14:46:21.657Z,17.25
2023-03-06T14:48:50.664Z,19.25
2023-03-06T14:51:26.288Z,17.75
2023-03-06T14:54:01.885Z,19.25
2023-03-06T14:56:32.534Z,19.75
2023-03-06T14:59:05.311Z,19.00
2023-03-06T15:01:56.105Z,19.00
2023-03-06T15:04:45.523Z,21.00
2023-03-06T15:07:19.033Z,20.25
2023-03-06T15:09:53.733Z,20.50
2023-03-06T15:12:22.200Z,21.00
2023-03-06T15:14:58.893Z,21.75
2023-03-06T15:17:30.561Z,19.25
2023-03-06T15:20:00.936Z,19.50
2023-03-06T15:22:40.281Z,21.00
2023-03-06T15:25:20.554Z,23.25
2023-03-06T15:28:14.739Z,21.00
2023-03-06T15:30:43.033Z,21.00
2023-03-06T15:33:25.242Z,22.00
2023-03-06T15:36:02.651Z,22.50
2023-03-06T15:38:42.812Z,23.00
2023-03-06T15:41:38.572Z,22.25
2023-03-06T15:44:14.072Z,23.00
2023-03-06T15:46:43.091Z,21.75
2023-03-06T15:49:17.863Z,21.25
2023-03-06T15:51:46.205Z,22.00
2023-03-06T15:54:14.582Z,23.50
2023-03-06T15:56:45.537Z,22.00
2023-03-06T15:59:34.112Z,22.50
2023-03-06T16:02:20.807Z,23.75
2023-03-06T16:04:50.326Z,22.75
2023-03-06T16:07:19.383Z,22.50
2023-03-06T16:09:48.362Z,22.00
2023-03-06T16:12:22.550Z,22.25
2023-03-06T16:14:50.954Z,23.00
2023-03-06T16:17:19.285Z,24.75
2023-03-06T16:19:47.617Z,25.00
2023-03-06T16:22:15.967Z,24.25
2023-03-06T16:27:30.988Z,22.75
2023-03-06T16:32:47.453Z,23.50
2023-03-06T16:38:00.765Z,23.50
2023-03-06T16:40:56.135Z,24.50
2023-03-06T16:43:24.459Z,23.75
2023-03-06T16:45:53.064Z,23.50
2023-03-06T16:48:29.049Z,24.75
2023-03-06T16:50:59.639Z,22.75
2023-03-06T16:53:28.221Z,24.75
2023-03-06T16:55:56.607Z,22.25
2023-03-06T16:58:25.022Z,23.25
2023-03-06T17:00:53.424Z,22.75
2023-03-06T17:03:23.977Z,23.00
2023-03-06T17:05:53.621Z,22.75
2023-03-06T17:08:21.946Z,23.00
2023-03-06T17:10:53.779Z,22.50
2023-03-06T17:13:22.123Z,23.00
2023-03-06T17:16:06.685Z,24.25
2023-03-06T17:18:35.160Z,22.75
2023-03-06T17:21:03.815Z,22.50
2023-03-06T17:23:32.460Z,22.50
2023-03-06T17:26:19.784Z,22.50
2023-03-06T17:28:48.858Z,21.50
2023-03-06T17:31:23.371Z,23.00
2023-03-06T17:34:01.617Z,21.50
2023-03-06T17:36:31.954Z,22.25
2023-03-06T17:39:09.123Z,23.25
2023-03-06T17:41:37.527Z,23.50
2023-03-06T17:44:06.307Z,23.00
2023-03-06T17:46:35.609Z,22.00
2023-03-06T17:49:04.553Z,22.25
2023-03-06T17:51:32.839Z,22.75
2023-03-06T17:54:01.305Z,23.00
2023-03-06T17:56:32.066Z,25.50
2023-03-06T17:59:01.389Z,24.00
2023-03-06T18:01:35.450Z,23.75
2023-03-06T18:04:04.816Z,23.75
2023-03-06T18:06:34.804Z,23.25
2023-03-06T18:09:05.902Z,23.00
2023-03-06T18:11:34.800Z,22.50
2023-03-06T18:14:08.263Z,23.00
2023-03-06T18:16:37.173Z,22.50
2023-03-06T18:19:09.010Z,23.25
2023-03-06T18:21:37.548Z,23.75
2023-03-06T18:24:07.009Z,22.00
2023-03-06T18:26:35.383Z,23.00
2023-03-06T18:29:05.450Z,23.50
2023-03-06T18:31:43.924Z,25.25
2023-03-06T18:34:15.146Z,22.00
2023-03-06T18:36:44.589Z,23.00
2023-03-06T18:39:14.901Z,23.75
2023-03-06T18:41:43.378Z,23.25
2023-03-06T18:44:15.698Z,24.25
2023-03-06T18:46:47.256Z,20.75
2023-03-06T18:49:20.432Z,22.25
2023-03-06T18:51:51.396Z,22.75
2023-03-06T18:54:22.528Z,21.25
2023-03-06T18:56:51.232Z,21.00
2023-03-06T18:59:29.429Z,22.00
2023-03-06T19:01:58.714Z,21.00
2023-03-06T19:04:27.592Z,21.00
2023-03-06T19:06:56.083Z,20.25
2023-03-06T19:09:24.558Z,19.00
2023-03-06T19:11:54.845Z,19.25
2023-03-06T19:14:23.284Z,21.50
2023-03-06T19:16:51.828Z,22.00
2023-03-06T19:19:20.147Z,19.00
2023-03-06T19:21:48.482Z,20.50
2023-03-06T19:24:16.809Z,18.75
2023-03-06T19:26:45.120Z,21.25
2023-03-06T19:29:13.457Z,19.50
2023-03-06T19:31:42.644Z,21.25
2023-03-06T19:34:11.246Z,20.25
2023-03-06T19:36:41.584Z,20.25
2023-03-06T19:39:10.493Z,20.75
2023-03-06T19:41:38.832Z,19.75
2023-03-06T19:44:07.325Z,19.50
2023-03-06T19:46:37.093Z,21.50
2023-03-06T19:49:13.065Z,19.75
2023-03-06T19:51:41.554Z,20.75
2023-03-06T19:54:13.074Z,20.00
2023-03-06T19:56:41.655Z,20.00
2023-03-06T19:59:10.069Z,21.00
2023-03-06T20:01:39.533Z,20.75
2023-03-06T20:04:08.178Z,19.00
2023-03-06T20:06:39.811Z,19.50
2023-03-06T20:09:10.075Z,21.00
2023-03-06T20:11:39.729Z,21.50
2023-03-06T20:14:09.755Z,21.00
2023-03-06T20:16:38.246Z,21.00
2023-03-06T20:19:07.816Z,20.00
2023-03-06T20:21:38.537Z,20.75
2023-03-06T20:24:08.639Z,20.50
2023-03-06T20:26:39.042Z,18.75
2023-03-06T20:29:07.436Z,19.00
2023-03-06T20:31:35.814Z,21.00
2023-03-06T20:34:05.406Z,20.25
2023-03-06T20:36:37.060Z,21.00
2023-03-06T20:39:08.497Z,20.00
2023-03-06T20:41:37.380Z,20.00
2023-03-06T20:44:08.336Z,20.00
2023-03-06T20:46:37.288Z,20.25
2023-03-06T20:49:06.522Z,21.00
2023-03-06T20:51:39.940Z,22.00
2023-03-06T20:54:10.041Z,19.50
2023-03-06T20:56:42.321Z,20.75
2023-03-06T20:59:13.339Z,19.00
2023-03-06T21:01:44.565Z,21.50
2023-03-06T21:04:15.060Z,20.50
2023-03-06T21:06:47.297Z,21.75
2023-03-06T21:09:17.902Z,22.00
2023-03-06T21:11:47.231Z,19.25
2023-03-06T21:14:16.298Z,20.75
2023-03-06T21:16:44.669Z,21.00
2023-03-06T21:19:13.682Z,21.75
2023-03-06T21:21:42.350Z,20.50
2023-03-06T21:24:10.693Z,20.50
2023-03-06T21:26:39.064Z,19.75
2023-03-06T21:29:07.389Z,20.75
2023-03-06T21:31:35.797Z,19.00
2023-03-06T21:34:05.199Z,19.75
2023-03-06T21:36:35.163Z,20.75
2023-03-06T21:39:07.076Z,20.00
2023-03-06T21:41:35.848Z,20.50
2023-03-06T21:44:06.588Z,19.75
2023-03-06T21:46:35.359Z,21.50
2023-03-06T21:49:05.671Z,19.75
2023-03-06T21:51:34.081Z,19.75
2023-03-06T21:54:03.814Z,20.25
2023-03-06T21:56:34.236Z,19.75
2023-03-06T21:59:02.647Z,20.75
2023-03-06T22:01:31.655Z,19.00
2023-03-06T22:04:00.922Z,19.25
2023-03-06T22:06:30.909Z,20.00
2023-03-06T22:09:01.228Z,20.75
2023-03-06T22:11:32.186Z,19.00
2023-03-06T22:14:00.530Z,21.00
2023-03-06T22:16:29.015Z,19.50
2023-03-06T22:18:57.617Z,19.00
2023-03-06T22:21:26.827Z,21.00
2023-03-06T22:23:59.610Z,21.00
2023-03-06T22:26:29.487Z,18.50
2023-03-06T22:28:58.408Z,21.00
2023-03-06T22:31:29.721Z,18.50
2023-03-06T22:34:00.891Z,20.75
2023-03-06T22:36:34.055Z,19.75
2023-03-06T22:39:05.115Z,19.50
2023-03-06T22:41:33.447Z,19.50
2023-03-06T22:44:03.172Z,19.75
2023-03-06T22:46:32.362Z,19.00
2023-03-06T22:49:01.597Z,19.00
2023-03-06T22:51:30.648Z,18.50
2023-03-06T22:53:59.307Z,19.25
2023-03-06T22:56:27.687Z,20.25
2023-03-06T22:58:56.051Z,20.50
2023-03-06T23:01:27.742Z,19.00
2023-03-06T23:03:58.912Z,21.00
2023-03-06T23:06:35.621Z,17.75
2023-03-06T23:09:08.342Z,20.25
2023-03-06T23:11:36.631Z,18.75
2023-03-06T23:14:06.736Z,19.25
2023-03-06T23:16:35.265Z,21.00
2023-03-06T23:19:05.338Z,19.50
2023-03-06T23:21:35.141Z,19.00
2023-03-06T23:24:03.775Z,19.75
2023-03-06T23:26:35.036Z,20.00
2023-03-06T23:29:05.287Z,19.75
2023-03-06T23:31:33.610Z,19.25
2023-03-06T23:34:03.670Z,19.75
2023-03-06T23:36:32.518Z,20.25
2023-03-06T23:39:00.879Z,20.50
2023-03-06T23:41:29.521Z,20.25
2023-03-06T23:43:57.805Z,20.25
2023-03-06T23:46:26.191Z,19.00
2023-03-06T23:48:54.693Z,19.25
2023-03-06T23:51:24.111Z,21.00
2023-03-06T23:53:59.102Z,21.50
2023-03-06T23:56:29.452Z,22.00
2023-03-06T23:58:57.810Z,20.75
